Time;durP1;ratioP1;P1;durP2;ratioP2;P2;SDS_P1;SDS_P2;PMS_P1;PMS_P2;Temp;Humidity;BMP_temperature;BMP_pressure;BME280_temperature;BME280_humidity;BME280_pressure;Samples;Min_cycle;Max_cycle;Signal;HPM_P1;HPM_P2
2022/03/27 00:00:45;;;;;;;19.90;16.50;;;8.70;25.80;;;;;;4979903;28;20470;-59
2022/03/27 00:03:12;;;;;;;21.00;15.60;;;8.70;29.10;;;;;;4980112;28;20465;-59
2022/03/27 00:05:39;;;;;;;21.83;16.30;;;8.60;63.90;;;;;;4980238;28;20465;-59
2022/03/27 00:08:12;;;;;;;19.90;15.27;;;8.60;99.90;;;;;;4977498;28;20525;-59
2022/03/27 00:13:24;;;;;;;19.07;15.17;;;8.70;99.90;;;;;;4977056;28;20453;-59
2022/03/27 00:15:56;;;;;;;18.40;15.27;;;8.60;99.90;;;;;;4970783;28;20546;-59
2022/03/27 00:18:25;;;;;;;17.00;13.90;;;8.60;99.90;;;;;;4975869;28;21009;-59
2022/03/27 00:20:56;;;;;;;21.13;16.63;;;8.70;99.90;;;;;;4977737;28;20436;-59
2022/03/27 00:23:26;;;;;;;22.43;16.70;;;8.70;99.90;;;;;;4977998;28;20462;-59
2022/03/27 00:26:02;;;;;;;20.83;16.60;;;8.50;99.90;;;;;;4978023;28;20458;-59
2022/03/27 00:28:35;;;;;;;21.00;17.20;;;8.50;99.90;;;;;;4977854;28;21427;-59
2022/03/27 00:31:04;;;;;;;20.23;15.50;;;8.40;99.90;;;;;;4959824;28;20467;-60
2022/03/27 00:33:39;;;;;;;17.53;15.27;;;8.40;99.90;;;;;;4959829;29;20470;-59
2022/03/27 00:36:08;;;;;;;21.50;15.60;;;8.50;99.90;;;;;;4960274;29;20470;-59
2022/03/27 00:38:35;;;;;;;16.60;14.63;;;8.50;99.90;;;;;;4959750;29;21001;-60
2022/03/27 00:41:14;;;;;;;19.37;14.70;;;8.50;99.90;;;;;;4960029;29;20522;-59
2022/03/27 00:43:41;;;;;;;17.43;13.40;;;8.50;99.90;;;;;;4959802;29;20502;-60
2022/03/27 00:46:14;;;;;;;18.63;14.00;;;8.40;99.90;;;;;;4960016;29;20477;-59
2022/03/27 00:48:43;;;;;;;15.50;13.13;;;8.40;99.90;;;;;;4962779;28;20809;-59
2022/03/27 00:51:12;;;;;;;18.10;14.43;;;8.40;99.90;;;;;;4977647;28;20463;-59
2022/03/27 00:53:47;;;;;;;17.73;13.33;;;8.30;99.90;;;;;;4977264;28;20957;-59
2022/03/27 00:56:20;;;;;;;18.10;13.10;;;8.30;99.90;;;;;;4976996;28;20886;-59
2022/03/27 00:58:50;;;;;;;16.07;12.87;;;8.20;99.90;;;;;;4975438;28;20952;-59
2022/03/27 01:01:21;;;;;;;16.53;13.67;;;8.10;99.90;;;;;;4977232;28;20935;-59
2022/03/27 01:03:57;;;;;;;19.60;15.37;;;8.10;99.90;;;;;;4977939;28;20513;-58
2022/03/27 01:06:32;;;;;;;21.07;15.93;;;8.00;99.90;;;;;;4978302;28;20461;-59
2022/03/27 01:11:53;;;;;;;20.53;16.40;;;7.90;99.90;;;;;;4978192;28;20733;-58
2022/03/27 01:14:34;;;;;;;17.23;14.50;;;7.90;99.90;;;;;;4978562;28;20466;-59
2022/03/27 01:17:02;;;;;;;21.07;16.07;;;7.80;99.90;;;;;;4978447;28;20548;-59
2022/03/27 01:19:35;;;;;;;20.03;15.83;;;7.80;99.90;;;;;;4977467;28;20517;-57
2022/03/27 01:22:04;;;;;;;19.90;15.83;;;7.70;99.90;;;;;;4976022;28;20521;-59
2022/03/27 01:24:31;;;;;;;20.90;16.03;;;7.70;99.90;;;;;;4977195;28;20493;-59
2022/03/27 01:27:03;;;;;;;20.33;14.77;;;7.60;99.90;;;;;;4978306;28;20512;-59
2022/03/27 01:29:31;;;;;;;18.30;14.60;;;7.60;99.90;;;;;;4976792;28;20467;-59
2022/03/27 01:31:59;;;;;;;17.27;14.60;;;7.60;99.90;;;;;;4977135;28;20506;-58
2022/03/27 01:34:31;;;;;;;15.93;13.40;;;7.60;99.90;;;;;;4976478;28;20497;-59
2022/03/27 01:37:09;;;;;;;18.07;15.27;;;7.50;99.90;;;;;;4977071;28;20830;-58
2022/03/27 01:39:39;;;;;;;18.83;14.57;;;7.60;1.00;;;;;;4978047;28;20492;-59
2022/03/27 01:42:12;;;;;;;16.10;13.77;;;7.60;1.00;;;;;;4982453;28;20469;-59
2022/03/27 01:44:46;;;;;;;20.80;15.77;;;7.40;1.00;;;;;;4984687;28;20516;-59
2022/03/27 01:47:13;;;;;;;19.93;14.60;;;7.30;1.00;;;;;;4983223;28;20466;-59
2022/03/27 01:49:46;;;;;;;18.47;13.70;;;7.20;1.00;;;;;;4984133;28;20466;-59
2022/03/27 01:52:16;;;;;;;20.47;14.07;;;7.30;1.00;;;;;;4984652;28;20457;-58
2022/03/27 01:54:43;;;;;;;18.57;14.67;;;7.20;1.00;;;;;;4983681;28;20501;-59
2022/03/27 01:57:14;;;;;;;19.67;15.30;;;7.20;67.60;;;;;;4984140;28;20500;-59
2022/03/27 01:59:46;;;;;;;17.43;14.47;;;7.20;99.90;;;;;;4984485;28;20775;-59
2022/03/27 02:02:13;;;;;;;16.63;12.60;;;7.20;99.90;;;;;;4984770;28;20939;-58
2022/03/27 02:04:42;;;;;;;18.67;13.90;;;7.20;99.90;;;;;;4984831;28;20752;-59
2022/03/27 02:07:11;;;;;;;18.17;13.50;;;7.20;99.90;;;;;;4984556;28;20464;-59
2022/03/27 02:09:40;;;;;;;18.60;14.43;;;7.20;46.30;;;;;;4984947;28;20461;-59
2022/03/27 02:12:12;;;;;;;20.60;14.70;;;7.10;52.00;;;;;;4989320;28;20485;-59
2022/03/27 02:14:40;;;;;;;16.43;13.97;;;7.10;99.90;;;;;;5004041;28;20439;-59
2022/03/27 02:17:09;;;;;;;16.97;12.30;;;7.00;99.90;;;;;;5004030;28;20496;-59
2022/03/27 02:19:38;;;;;;;17.73;14.27;;;7.10;99.90;;;;;;5004137;28;20483;-59
2022/03/27 02:22:06;;;;;;;16.63;14.70;;;7.00;99.90;;;;;;5004482;28;20471;-59
2022/03/27 02:24:33;;;;;;;18.13;15.07;;;7.00;52.00;;;;;;5004035;28;20468;-59
2022/03/27 02:27:01;;;;;;;18.87;14.63;;;7.00;1.00;;;;;;5004044;28;20515;-59
2022/03/27 02:29:32;;;;;;;18.90;14.50;;;6.90;1.00;;;;;;5003972;28;20469;-59
2022/03/27 02:32:01;;;;;;;18.80;15.60;;;6.80;1.00;;;;;;5004192;28;20464;-59
2022/03/27 02:34:28;;;;;;;22.10;15.67;;;6.80;1.00;;;;;;5003636;28;20591;-59
2022/03/27 02:36:55;;;;;;;21.40;15.13;;;6.80;1.00;;;;;;5003602;28;20530;-59
2022/03/27 02:39:22;;;;;;;20.60;15.73;;;6.80;1.00;;;;;;5003528;28;20464;-59
2022/03/27 02:41:49;;;;;;;20.83;16.23;;;6.80;1.00;;;;;;5004080;28;20836;-59
2022/03/27 02:44:19;;;;;;;23.47;16.77;;;6.80;1.00;;;;;;5004116;28;20461;-59
2022/03/27 02:46:50;;;;;;;19.87;15.40;;;6.70;1.00;;;;;;5003707;28;20503;-59
2022/03/27 02:49:17;;;;;;;19.90;16.40;;;6.60;1.00;;;;;;5003786;28;20457;-59
2022/03/27 02:51:50;;;;;;;18.10;14.60;;;6.50;1.00;;;;;;5001032;28;20455;-59
2022/03/27 02:54:22;;;;;;;18.10;14.63;;;6.50;1.00;;;;;;4979478;28;20512;-59
2022/03/27 02:56:51;;;;;;;18.00;15.00;;;6.40;1.00;;;;;;4981081;28;20466;-59
2022/03/27 02:59:25;;;;;;;18.03;14.20;;;6.30;5.50;;;;;;4981446;28;20556;-59
2022/03/27 03:01:52;;;;;;;19.33;14.70;;;6.30;99.90;;;;;;4981513;28;20505;-59
2022/03/27 03:04:20;;;;;;;18.23;15.50;;;6.40;99.90;;;;;;4980512;28;20523;-59
2022/03/27 03:06:52;;;;;;;19.03;14.83;;;6.50;99.90;;;;;;4980843;28;20466;-59
2022/03/27 03:09:23;;;;;;;22.40;15.40;;;6.50;99.90;;;;;;4980860;28;20465;-59
2022/03/27 03:11:50;;;;;;;19.20;16.17;;;6.60;42.20;;;;;;4982508;28;20525;-59
2022/03/27 03:14:19;;;;;;;19.43;15.00;;;6.60;99.90;;;;;;4999723;28;20507;-59
2022/03/27 03:16:52;;;;;;;22.10;15.30;;;6.60;99.90;;;;;;5000243;28;20835;-59
2022/03/27 03:19:24;;;;;;;15.17;13.40;;;6.60;1.00;;;;;;4999761;28;20504;-59
2022/03/27 03:21:54;;;;;;;17.43;14.63;;;6.60;1.00;;;;;;5000574;28;20469;-59
2022/03/27 03:24:30;;;;;;;16.73;13.83;;;6.60;99.90;;;;;;4999481;28;20465;-59
2022/03/27 03:26:57;;;;;;;18.53;13.60;;;6.60;99.90;;;;;;4999758;28;20768;-59
2022/03/27 03:29:31;;;;;;;17.03;13.87;;;6.60;1.00;;;;;;4999836;28;20461;-59
2022/03/27 03:32:03;;;;;;;18.00;15.80;;;6.60;1.00;;;;;;5000032;28;20770;-58
2022/03/27 03:34:32;;;;;;;23.70;15.63;;;6.60;1.00;;;;;;4999300;28;20568;-59
2022/03/27 03:37:02;;;;;;;16.97;12.97;;;6.70;1.00;;;;;;4999656;28;20469;-59
2022/03/27 03:39:29;;;;;;;18.13;14.57;;;6.70;99.90;;;;;;4999562;28;20496;-59
2022/03/27 03:41:56;;;;;;;15.97;13.77;;;6.80;1.00;;;;;;4999348;28;20921;-59
2022/03/27 03:44:30;;;;;;;18.87;14.07;;;6.80;99.90;;;;;;4999098;28;20469;-59
2022/03/27 03:47:05;;;;;;;16.00;13.33;;;6.90;99.90;;;;;;4998193;28;20469;-59
2022/03/27 03:49:32;;;;;;;20.73;13.93;;;7.00;1.00;;;;;;4999510;28;20514;-59
2022/03/27 03:52:02;;;;;;;17.40;13.90;;;7.00;99.90;;;;;;4994239;28;20513;-59
2022/03/27 03:54:34;;;;;;;15.67;13.63;;;7.00;99.90;;;;;;4980365;28;20462;-59
2022/03/27 03:57:03;;;;;;;20.70;14.60;;;7.10;2.50;;;;;;4980183;28;20469;-59
2022/03/27 03:59:36;;;;;;;19.20;15.00;;;7.10;1.00;;;;;;4980194;28;20500;-59
2022/03/27 04:02:05;;;;;;;21.23;14.10;;;7.20;1.00;;;;;;4980008;28;20513;-59
2022/03/27 04:04:35;;;;;;;21.77;17.03;;;7.40;99.90;;;;;;4979337;28;20773;-59
2022/03/27 04:07:05;;;;;;;24.93;16.17;;;7.50;1.00;;;;;;4979574;28;20473;-59
2022/03/27 04:09:32;;;;;;;19.90;14.83;;;7.60;99.90;;;;;;4979701;28;20458;-59
2022/03/27 04:12:02;;;;;;;20.37;14.93;;;7.70;1.00;;;;;;4982268;28;20453;-58
2022/03/27 04:14:34;;;;;;;19.40;15.90;;;7.70;99.90;;;;;;4998904;28;20905;-59
2022/03/27 04:17:05;;;;;;;19.37;15.37;;;7.70;99.90;;;;;;4999114;28;20465;-59
2022/03/27 04:19:32;;;;;;;16.00;14.30;;;7.80;72.30;;;;;;4998995;28;20532;-59
2022/03/27 04:21:59;;;;;;;21.30;15.83;;;7.80;1.00;;;;;;4999318;28;20523;-59
2022/03/27 04:24:26;;;;;;;18.97;15.40;;;7.80;1.00;;;;;;4998790;28;20465;-59
2022/03/27 04:26:56;;;;;;;25.27;18.27;;;7.80;97.80;;;;;;4998462;28;20560;-59
2022/03/27 04:29:31;;;;;;;24.53;17.97;;;8.00;1.00;;;;;;4997746;28;20496;-60
2022/03/27 04:32:01;;;;;;;30.67;20.07;;;8.10;24.40;;;;;;4977151;28;20796;-59
2022/03/27 04:34:31;;;;;;;26.30;21.80;;;8.20;99.90;;;;;;4977415;28;20489;-59
2022/03/27 04:37:08;;;;;;;28.43;21.90;;;8.30;99.90;;;;;;4978121;28;20827;-59
2022/03/27 04:39:38;;;;;;;25.00;21.03;;;8.30;99.90;;;;;;4978847;28;20556;-59
2022/03/27 04:42:10;;;;;;;31.20;21.47;;;8.40;99.90;;;;;;4978961;28;20945;-59
2022/03/27 04:44:39;;;;;;;33.63;23.00;;;8.40;99.90;;;;;;4979102;28;20469;-59
2022/03/27 04:47:12;;;;;;;31.83;23.00;;;8.50;99.90;;;;;;4978420;28;20465;-59
2022/03/27 04:49:42;;;;;;;32.73;23.70;;;8.50;99.90;;;;;;4978300;28;20815;-59
2022/03/27 04:52:09;;;;;;;33.13;23.87;;;8.50;99.90;;;;;;4978229;28;20462;-59
2022/03/27 04:54:41;;;;;;;30.73;23.60;;;8.40;99.90;;;;;;4978078;28;20470;-59
2022/03/27 04:57:08;;;;;;;35.70;24.30;;;8.50;99.90;;;;;;4978154;28;20466;-59
2022/03/27 04:59:35;;;;;;;33.03;24.17;;;8.50;99.90;;;;;;4978741;28;20494;-60
2022/03/27 05:02:10;;;;;;;35.37;24.87;;;8.50;99.90;;;;;;4978878;28;20540;-59
2022/03/27 05:04:40;;;;;;;32.00;24.97;;;8.50;99.90;;;;;;4978528;28;20476;-59
2022/03/27 05:07:07;;;;;;;31.77;25.30;;;8.50;99.90;;;;;;4978963;28;20544;-59
2022/03/27 05:09:36;;;;;;;30.40;23.90;;;8.60;99.90;;;;;;4978690;28;20462;-60
2022/03/27 05:12:04;;;;;;;33.83;23.50;;;8.60;99.90;;;;;;4982148;28;20465;-59
2022/03/27 05:14:31;;;;;;;32.83;25.30;;;8.50;99.90;;;;;;4997954;28;20479;-59
2022/03/27 05:16:58;;;;;;;32.77;24.60;;;8.50;99.90;;;;;;4996761;28;20473;-59
2022/03/27 05:19:26;;;;;;;37.50;25.50;;;8.60;99.90;;;;;;4997974;28;20789;-59
2022/03/27 05:21:53;;;;;;;31.90;24.40;;;8.60;99.90;;;;;;4997712;28;20917;-60
2022/03/27 05:24:25;;;;;;;34.23;24.00;;;8.70;99.90;;;;;;4997540;28;20905;-59
2022/03/27 05:26:54;;;;;;;34.90;25.67;;;8.70;99.90;;;;;;4997908;28;20480;-60
2022/03/27 05:29:22;;;;;;;34.33;27.30;;;8.60;99.90;;;;;;4997795;28;20524;-60
2022/03/27 05:31:49;;;;;;;38.77;25.90;;;8.60;99.90;;;;;;4997788;28;20472;-60
2022/03/27 05:34:19;;;;;;;35.00;26.07;;;8.60;99.90;;;;;;4997339;28;20489;-59
2022/03/27 05:36:50;;;;;;;32.13;24.33;;;8.60;99.90;;;;;;4997943;28;20445;-60
2022/03/27 05:39:21;;;;;;;35.80;26.93;;;8.70;99.90;;;;;;4997459;28;20925;-60
2022/03/27 05:41:54;;;;;;;46.77;27.70;;;8.60;99.90;;;;;;4997994;28;20465;-59
2022/03/27 05:44:21;;;;;;;39.60;28.40;;;8.70;99.90;;;;;;4997686;28;20465;-60
2022/03/27 05:46:51;;;;;;;39.77;27.67;;;8.60;99.90;;;;;;4997615;28;20465;-59
2022/03/27 05:49:18;;;;;;;43.40;29.03;;;8.60;99.90;;;;;;4997114;28;20465;-59
2022/03/27 05:51:47;;;;;;;44.93;27.70;;;8.60;99.90;;;;;;4993822;28;20558;-59
2022/03/27 05:54:14;;;;;;;41.13;27.40;;;8.60;99.90;;;;;;4977922;28;20561;-59
2022/03/27 05:56:41;;;;;;;38.90;27.70;;;8.60;99.90;;;;;;4977861;28;20465;-60
2022/03/27 05:59:08;;;;;;;41.10;28.50;;;8.70;99.90;;;;;;4976064;28;21005;-60
2022/03/27 06:01:38;;;;;;;37.77;26.83;;;8.70;99.90;;;;;;4975485;28;20465;-60
2022/03/27 06:04:05;;;;;;;43.73;28.53;;;8.70;99.90;;;;;;4972708;28;20561;-60
2022/03/27 06:06:35;;;;;;;43.73;28.70;;;8.80;99.90;;;;;;4975141;28;20466;-59
2022/03/27 06:09:08;;;;;;;41.13;27.50;;;8.80;99.90;;;;;;4976526;28;20879;-60
2022/03/27 06:11:36;;;;;;;38.80;27.40;;;8.80;99.90;;;;;;4975510;28;20899;-60
2022/03/27 06:14:05;;;;;;;37.93;25.20;;;8.80;99.90;;;;;;4977462;28;20458;-60
2022/03/27 06:16:32;;;;;;;41.10;29.10;;;8.80;99.90;;;;;;4975564;28;20933;-60
2022/03/27 06:19:04;;;;;;;49.33;29.07;;;8.90;99.90;;;;;;4976522;28;20493;-60
2022/03/27 06:21:32;;;;;;;39.43;27.80;;;8.80;99.90;;;;;;4976293;28;20465;-60
2022/03/27 06:24:02;;;;;;;41.97;28.30;;;8.90;99.90;;;;;;4975197;28;20481;-60
2022/03/27 06:26:30;;;;;;;43.77;27.90;;;8.90;99.90;;;;;;4975958;28;20791;-60
2022/03/27 06:29:00;;;;;;;41.37;29.30;;;8.90;99.90;;;;;;4979107;28;20450;-60
2022/03/27 06:31:27;;;;;;;41.03;30.10;;;9.00;99.90;;;;;;4979559;28;20803;-60
2022/03/27 06:33:57;;;;;;;43.37;28.53;;;9.00;99.90;;;;;;4979456;28;20989;-60
2022/03/27 06:36:25;;;;;;;39.70;28.87;;;9.10;99.90;;;;;;4977171;28;20514;-60
2022/03/27 06:38:54;;;;;;;43.10;28.57;;;9.20;99.90;;;;;;4980187;28;20968;-60
2022/03/27 06:41:21;;;;;;;39.20;29.10;;;9.20;99.90;;;;;;4974261;28;20544;-60
2022/03/27 06:43:53;;;;;;;48.77;33.50;;;9.20;99.90;;;;;;4979463;28;20515;-60
2022/03/27 06:46:31;;;;;;;43.43;30.57;;;9.20;99.90;;;;;;4979291;28;20481;-60
2022/03/27 06:49:03;;;;;;;40.60;29.50;;;9.30;99.90;;;;;;4979818;28;20457;-60
2022/03/27 06:51:31;;;;;;;45.43;32.27;;;9.30;99.90;;;;;;4980275;28;20473;-60
2022/03/27 06:54:00;;;;;;;47.03;32.33;;;9.30;99.90;;;;;;4981319;28;20524;-60
2022/03/27 06:56:28;;;;;;;41.40;32.57;;;9.20;99.90;;;;;;4981224;28;20550;-60
2022/03/27 06:58:56;;;;;;;43.60;31.47;;;9.20;99.90;;;;;;4980780;28;20584;-60
2022/03/27 07:04:10;;;;;;;46.90;32.10;;;9.30;99.90;;;;;;4980367;28;20773;-60
2022/03/27 07:06:50;;;;;;;46.83;31.37;;;9.40;99.90;;;;;;4981328;28;20907;-60
2022/03/27 07:09:18;;;;;;;40.63;30.30;;;9.40;99.90;;;;;;4980537;28;20462;-60
2022/03/27 07:11:48;;;;;;;40.07;31.10;;;9.50;99.90;;;;;;4982159;28;20898;-60
2022/03/27 07:14:17;;;;;;;37.13;28.93;;;9.50;99.90;;;;;;4993469;28;20521;-60
2022/03/27 07:16:44;;;;;;;37.57;29.43;;;9.50;99.90;;;;;;4979285;28;20458;-60
2022/03/27 07:19:14;;;;;;;35.40;29.87;;;9.40;99.90;;;;;;4978652;28;20490;-60
2022/03/27 07:21:42;;;;;;;37.77;28.87;;;9.50;99.90;;;;;;4978535;28;20540;-60
2022/03/27 07:24:09;;;;;;;36.90;27.80;;;9.50;99.90;;;;;;4977991;28;20505;-60
2022/03/27 07:26:46;;;;;;;40.70;31.00;;;9.70;99.90;;;;;;4977139;28;20503;-60
2022/03/27 07:29:18;;;;;;;39.03;28.77;;;9.80;99.90;;;;;;4976043;28;20457;-59
2022/03/27 07:31:49;;;;;;;33.93;28.27;;;9.80;99.90;;;;;;4978047;28;20810;-59
2022/03/27 07:34:21;;;;;;;36.97;29.47;;;10.00;99.90;;;;;;4980105;28;20489;-59
2022/03/27 07:36:49;;;;;;;35.53;29.90;;;10.10;1.00;;;;;;4980393;28;20945;-59
2022/03/27 07:39:19;;;;;;;37.80;28.13;;;10.30;19.00;;;;;;4979686;28;20960;-60
2022/03/27 07:41:46;;;;;;;33.67;27.60;;;10.40;99.90;;;;;;4980101;28;20568;-59
2022/03/27 07:44:16;;;;;;;32.00;26.70;;;10.60;1.00;;;;;;4980048;28;20469;-59
2022/03/27 07:46:46;;;;;;;34.67;26.70;;;10.80;1.00;;;;;;4980372;28;20466;-60
2022/03/27 07:49:20;;;;;;;31.80;26.87;;;10.80;99.90;;;;;;4980262;28;20497;-60
2022/03/27 07:51:54;;;;;;;27.90;24.87;;;10.90;19.80;;;;;;4979574;28;20529;-60
2022/03/27 07:54:22;;;;;;;25.67;20.67;;;11.00;1.00;;;;;;4979007;28;20466;-60
2022/03/27 07:56:49;;;;;;;20.20;18.03;;;10.90;99.90;;;;;;4979964;28;20556;-59
2022/03/27 07:59:18;;;;;;;22.47;18.77;;;10.90;45.90;;;;;;4980015;28;20551;-60
2022/03/27 08:01:51;;;;;;;22.00;19.37;;;10.80;1.00;;;;;;4979953;28;20465;-60
2022/03/27 08:04:20;;;;;;;24.70;20.17;;;10.90;90.90;;;;;;4979706;28;20465;-60
2022/03/27 08:06:57;;;;;;;23.70;19.60;;;10.90;17.60;;;;;;4980033;28;20476;-59
2022/03/27 08:09:25;;;;;;;22.67;19.27;;;11.00;1.00;;;;;;4979305;28;20462;-59
2022/03/27 08:11:55;;;;;;;25.60;21.13;;;11.10;1.00;;;;;;4977825;28;20473;-60
2022/03/27 08:14:31;;;;;;;33.53;24.00;;;11.10;1.00;;;;;;4980220;28;20470;-60
2022/03/27 08:17:11;;;;;;;26.17;22.67;;;11.10;1.00;;;;;;4980051;28;20480;-60
2022/03/27 08:19:40;;;;;;;27.00;24.10;;;11.20;1.00;;;;;;4978408;28;20503;-60
2022/03/27 08:22:09;;;;;;;26.00;22.77;;;11.30;1.00;;;;;;4960575;29;20466;-60
2022/03/27 08:24:39;;;;;;;26.23;23.47;;;11.30;99.90;;;;;;4961075;28;20466;-60
2022/03/27 08:27:07;;;;;;;24.20;21.60;;;11.30;99.90;;;;;;4980079;28;20564;-60
2022/03/27 08:29:41;;;;;;;24.50;21.90;;;11.20;99.90;;;;;;4978944;28;20731;-60
2022/03/27 08:32:12;;;;;;;23.20;20.03;;;11.10;99.90;;;;;;4978845;28;20435;-60
2022/03/27 08:34:47;;;;;;;25.33;21.60;;;11.00;99.90;;;;;;4979331;28;20489;-60
2022/03/27 08:37:16;;;;;;;26.13;23.30;;;10.90;99.90;;;;;;4979452;28;20456;-60
2022/03/27 08:39:48;;;;;;;25.90;22.70;;;10.90;99.90;;;;;;4978917;28;20497;-61
2022/03/27 08:42:22;;;;;;;24.57;21.90;;;11.20;99.90;;;;;;4978819;28;20473;-61
2022/03/27 08:44:49;;;;;;;43.57;24.10;;;11.50;99.90;;;;;;4977859;28;20476;-61
2022/03/27 08:47:24;;;;;;;23.57;21.07;;;11.50;99.90;;;;;;4975378;28;20833;-61
2022/03/27 08:50:03;;;;;;;30.37;23.50;;;11.70;99.90;;;;;;4977572;28;20775;-61
2022/03/27 08:52:45;;;;;;;25.10;21.40;;;11.60;99.90;;;;;;4976933;28;20511;-61
2022/03/27 08:55:18;;;;;;;28.20;23.17;;;11.90;99.90;;;;;;4976724;28;20478;-61
2022/03/27 08:57:56;;;;;;;25.30;22.13;;;11.90;48.90;;;;;;4978414;28;20462;-61
2022/03/27 09:00:25;;;;;;;27.53;22.33;;;12.10;73.40;;;;;;4980773;28;20825;-61
2022/03/27 09:02:56;;;;;;;24.30;21.30;;;12.40;1.00;;;;;;4980318;28;20953;-61
2022/03/27 09:05:25;;;;;;;23.37;20.00;;;12.30;1.00;;;;;;4971910;28;20477;-61
2022/03/27 09:07:57;;;;;;;25.17;21.30;;;12.40;1.00;;;;;;4960984;29;20466;-60
2022/03/27 09:10:46;;;;;;;26.90;22.10;;;12.20;1.00;;;;;;4961332;29;20459;-61
2022/03/27 09:13:14;;;;;;;24.07;21.53;;;12.00;1.00;;;;;;4962078;29;20490;-60
2022/03/27 09:15:43;;;;;;;25.10;21.60;;;12.60;1.00;;;;;;4961211;29;20467;-60
2022/03/27 09:18:16;;;;;;;24.67;21.97;;;12.80;1.00;;;;;;4966131;28;20494;-61
2022/03/27 09:20:50;;;;;;;23.97;21.47;;;12.60;1.00;;;;;;4978907;28;20572;-61
2022/03/27 09:23:26;;;;;;;23.90;21.40;;;12.70;1.00;;;;;;4977506;28;20468;-61
2022/03/27 09:26:01;;;;;;;26.50;22.40;;;12.90;1.00;;;;;;4976064;28;20466;-61
2022/03/27 09:28:33;;;;;;;25.60;21.27;;;12.70;1.00;;;;;;4977171;28;20818;-61
2022/03/27 09:31:05;;;;;;;24.80;21.83;;;13.10;1.00;;;;;;4978926;28;20884;-61
2022/03/27 09:33:49;;;;;;;24.40;21.90;;;13.20;1.00;;;;;;4978079;28;20473;-61
2022/03/27 09:36:23;;;;;;;23.80;21.27;;;13.00;1.00;;;;;;4976186;28;20465;-61
2022/03/27 09:39:11;;;;;;;22.67;20.27;;;13.50;1.00;;;;;;4977165;28;20474;-61
2022/03/27 09:41:47;;;;;;;24.40;22.00;;;14.00;1.00;;;;;;4975507;28;20476;-61
2022/03/27 09:44:19;;;;;;;24.07;20.87;;;14.50;1.00;;;;;;4978621;28;20467;-61
2022/03/27 09:47:01;;;;;;;26.63;23.63;;;15.40;1.00;;;;;;4978882;28;20487;-61
2022/03/27 09:49:46;;;;;;;25.13;22.43;;;16.00;1.00;;;;;;4978973;28;20458;-61
2022/03/27 09:52:24;;;;;;;25.90;23.30;;;16.70;99.90;;;;;;4977750;28;20902;-62
2022/03/27 09:54:54;;;;;;;25.17;22.60;;;16.60;99.90;;;;;;4978166;28;20520;-61
2022/03/27 09:57:26;;;;;;;27.13;24.43;;;16.80;99.90;;;;;;4979062;28;20560;-61
2022/03/27 10:00:03;;;;;;;24.37;22.03;;;16.80;99.90;;;;;;4977943;28;20780;-62
2022/03/27 10:02:31;;;;;;;24.43;22.03;;;16.60;99.90;;;;;;4980133;28;20564;-62
2022/03/27 10:05:01;;;;;;;24.17;21.73;;;16.80;99.90;;;;;;4984553;28;20470;-61
2022/03/27 10:07:39;;;;;;;23.30;21.10;;;17.60;99.90;;;;;;4983133;28;20465;-62
2022/03/27 10:10:11;;;;;;;24.90;22.43;;;18.20;99.90;;;;;;4982232;28;20461;-62
2022/03/27 10:12:39;;;;;;;22.30;20.00;;;18.70;99.90;;;;;;4984328;28;20525;-61
2022/03/27 10:15:09;;;;;;;23.10;20.93;;;18.70;99.90;;;;;;4982953;28;20469;-62
2022/03/27 10:17:39;;;;;;;20.93;18.97;;;18.40;99.90;;;;;;4982726;28;20520;-62
2022/03/27 10:20:13;;;;;;;21.10;19.00;;;18.00;99.90;;;;;;4983936;28;20493;-60
2022/03/27 10:22:44;;;;;;;20.33;18.43;;;17.40;99.90;;;;;;4976748;28;20900;-61
2022/03/27 10:25:14;;;;;;;23.53;21.40;;;15.50;99.90;;;;;;4962312;29;20466;-61
2022/03/27 10:27:43;;;;;;;20.67;18.77;;;16.50;99.90;;;;;;4962587;29;20470;-60
2022/03/27 10:30:12;;;;;;;22.00;19.70;;;16.90;99.90;;;;;;4977100;28;20516;-60
2022/03/27 10:32:49;;;;;;;21.13;19.23;;;17.00;99.90;;;;;;4982869;28;20462;-61
2022/03/27 10:35:38;;;;;;;23.63;21.30;;;17.20;99.90;;;;;;4982769;28;20492;-61
2022/03/27 10:38:23;;;;;;;22.70;20.47;;;17.80;99.90;;;;;;4979995;28;20545;-61
2022/03/27 10:41:08;;;;;;;20.20;18.33;;;17.70;99.90;;;;;;4983242;28;20520;-60
2022/03/27 10:43:43;;;;;;;21.33;19.17;;;17.90;99.90;;;;;;4983819;28;20469;-61
2022/03/27 10:46:15;;;;;;;19.47;17.67;;;18.10;99.90;;;;;;4971725;28;20470;-61
2022/03/27 10:48:44;;;;;;;22.13;19.97;;;18.20;99.90;;;;;;4977047;28;20907;-61
2022/03/27 10:51:12;;;;;;;21.33;19.50;;;18.70;99.90;;;;;;4982070;28;21536;-61
2022/03/27 10:54:00;;;;;;;20.83;18.90;;;18.90;99.90;;;;;;4980646;28;20473;-61
2022/03/27 10:56:41;;;;;;;19.73;17.73;;;19.20;99.90;;;;;;4982236;28;20470;-61
2022/03/27 10:59:22;;;;;;;18.67;17.07;;;18.20;99.90;;;;;;4982795;28;20769;-61
2022/03/27 11:01:50;;;;;;;18.43;16.80;;;17.10;99.90;;;;;;4981888;28;20585;-61
2022/03/27 11:04:21;;;;;;;20.27;18.47;;;17.90;99.90;;;;;;4982569;28;20528;-61
2022/03/27 11:06:56;;;;;;;18.17;16.67;;;18.20;99.90;;;;;;4982066;28;20465;-60
2022/03/27 11:09:38;;;;;;;18.67;17.17;;;18.30;99.90;;;;;;4981953;28;20472;-61
2022/03/27 11:12:27;;;;;;;18.60;16.83;;;18.80;99.90;;;;;;4981865;28;20465;-61
2022/03/27 11:15:09;;;;;;;17.53;15.93;;;18.80;99.90;;;;;;4981168;28;20466;-61
2022/03/27 11:17:45;;;;;;;16.90;15.30;;;18.70;99.90;;;;;;4979143;28;20473;-60
2022/03/27 11:20:55;;;;;;;16.60;15.10;;;18.90;99.90;;;;;;4980900;28;20612;-61
2022/03/27 11:23:36;;;;;;;14.47;13.27;;;19.10;99.90;;;;;;4980140;28;20470;-59
2022/03/27 11:26:29;;;;;;;16.87;15.43;;;18.90;99.90;;;;;;4981840;28;20916;-57
2022/03/27 11:28:59;;;;;;;17.10;15.60;;;19.00;99.90;;;;;;4982696;28;20469;-59
2022/03/27 11:31:29;;;;;;;17.10;15.70;;;19.50;99.90;;;;;;4980619;28;20492;-59
2022/03/27 11:34:17;;;;;;;16.53;15.13;;;20.10;99.90;;;;;;4980393;28;20493;-60
2022/03/27 11:36:49;;;;;;;17.73;16.13;;;19.90;99.90;;;;;;4980839;28;20473;-59
2022/03/27 11:39:35;;;;;;;17.90;16.37;;;18.40;99.90;;;;;;4980212;28;20508;-58
2022/03/27 11:42:47;;;;;;;16.30;14.87;;;19.10;99.90;;;;;;4980325;28;20496;-60
2022/03/27 11:45:24;;;;;;;16.40;15.07;;;19.50;99.90;;;;;;4980488;28;20469;-61
2022/03/27 11:48:01;;;;;;;17.87;16.20;;;19.70;99.90;;;;;;4980314;28;20840;-61
2022/03/27 11:50:34;;;;;;;16.17;14.87;;;19.60;99.90;;;;;;4980278;28;20465;-61
2022/03/27 11:53:02;;;;;;;16.27;14.80;;;19.80;99.90;;;;;;4980189;28;20754;-61
2022/03/27 11:55:30;;;;;;;16.50;15.00;;;19.70;99.90;;;;;;4978959;28;20480;-62
2022/03/27 11:57:59;;;;;;;17.37;15.80;;;20.50;99.90;;;;;;4978006;28;20475;-61
2022/03/27 12:00:43;;;;;;;15.93;14.53;;;20.10;99.90;;;;;;4977752;28;20633;-61
2022/03/27 12:03:19;;;;;;;16.20;14.80;;;19.80;99.90;;;;;;4977726;28;20914;-61
2022/03/27 12:05:53;;;;;;;15.30;13.97;;;20.40;99.90;;;;;;4978357;28;20886;-61
2022/03/27 12:08:32;;;;;;;15.50;14.30;;;20.30;99.90;;;;;;4978793;28;20473;-61
2022/03/27 12:11:05;;;;;;;16.97;15.50;;;20.40;99.90;;;;;;4979309;28;20517;-61
2022/03/27 12:13:46;;;;;;;16.00;14.70;;;20.10;99.90;;;;;;4978645;28;20462;-61
2022/03/27 12:16:22;;;;;;;16.70;15.27;;;20.30;99.90;;;;;;4978590;28;20465;-61
2022/03/27 12:18:55;;;;;;;17.03;15.37;;;20.50;99.90;;;;;;4979074;28;20898;-61
2022/03/27 12:21:25;;;;;;;16.50;15.10;;;20.80;99.90;;;;;;4978261;28;20790;-61
2022/03/27 12:24:02;;;;;;;16.80;15.30;;;20.60;99.90;;;;;;4977390;28;20473;-60
2022/03/27 12:29:49;;;;;;;15.90;14.47;;;19.40;99.90;;;;;;4958215;29;20578;-61
2022/03/27 12:32:22;;;;;;;14.53;13.30;;;19.50;99.90;;;;;;4960312;29;20517;-61
2022/03/27 12:34:53;;;;;;;15.70;14.50;;;19.80;99.90;;;;;;4958255;29;20534;-61
2022/03/27 12:37:30;;;;;;;15.03;13.80;;;20.40;99.90;;;;;;4959190;29;20559;-60
2022/03/27 12:40:06;;;;;;;14.67;13.40;;;20.30;99.90;;;;;;4958310;29;20539;-61
2022/03/27 12:42:36;;;;;;;14.70;13.40;;;20.70;99.90;;;;;;4957848;29;20474;-61
2022/03/27 12:45:14;;;;;;;12.40;11.30;;;20.90;99.90;;;;;;4959504;29;20526;-61
2022/03/27 12:47:47;;;;;;;15.17;13.90;;;21.20;99.90;;;;;;4958833;29;20569;-61
2022/03/27 12:50:31;;;;;;;13.90;12.63;;;20.80;99.90;;;;;;4962086;28;20469;-60
2022/03/27 12:53:02;;;;;;;13.97;12.73;;;20.80;99.90;;;;;;4968270;28;20472;-60
2022/03/27 12:55:42;;;;;;;13.67;12.37;;;20.60;99.90;;;;;;4972044;28;20466;-60
2022/03/27 12:58:20;;;;;;;14.53;13.23;;;20.90;99.90;;;;;;4969029;28;20474;-61
2022/03/27 13:01:03;;;;;;;11.70;10.63;;;20.90;99.90;;;;;;4973788;28;20494;-61
2022/03/27 13:03:41;;;;;;;12.83;11.73;;;20.90;99.90;;;;;;4974592;28;20462;-60
2022/03/27 13:06:12;;;;;;;13.07;11.87;;;21.10;99.90;;;;;;4968708;28;20518;-61
2022/03/27 13:08:42;;;;;;;12.10;11.00;;;21.20;99.90;;;;;;4973476;28;20500;-61
2022/03/27 13:11:18;;;;;;;11.93;10.93;;;21.70;99.90;;;;;;4970196;28;20505;-61